createdAt,value
2018-02-14T00:02:27.075Z,25.43
2018-02-14T00:04:55.338Z,25.90
2018-02-14T00:07:23.597Z,25.20
2018-02-14T00:09:52.134Z,25.87
2018-02-14T00:12:20.403Z,26.33
2018-02-14T00:14:49.279Z,23.93
2018-02-14T00:17:17.558Z,25.87
2018-02-14T00:19:45.820Z,28.07
2018-02-14T00:22:14.110Z,27.10
2018-02-14T00:24:42.393Z,26.90
2018-02-14T00:27:10.661Z,24.37
2018-02-14T00:29:38.929Z,26.50
2018-02-14T00:32:07.193Z,26.80
2018-02-14T00:34:35.481Z,28.00
2018-02-14T00:37:03.995Z,25.13
2018-02-14T00:39:32.262Z,27.40
2018-02-14T00:42:00.545Z,25.50
2018-02-14T00:44:28.968Z,28.70
2018-02-14T00:46:57.212Z,27.43
2018-02-14T00:49:25.470Z,25.03
2018-02-14T00:51:53.726Z,25.53
2018-02-14T00:54:21.994Z,24.73
2018-02-14T00:56:50.241Z,23.90
2018-02-14T00:59:18.509Z,26.30
2018-02-14T01:01:46.765Z,26.87
2018-02-14T01:04:15.621Z,26.20
2018-02-14T01:06:43.925Z,27.30
2018-02-14T01:09:12.199Z,25.30
2018-02-14T01:11:40.459Z,26.40
2018-02-14T01:14:08.393Z,25.97
2018-02-14T01:16:36.639Z,26.00
2018-02-14T01:19:10.269Z,26.80
2018-02-14T01:21:38.342Z,28.40
2018-02-14T01:24:06.587Z,29.27
2018-02-14T01:26:34.851Z,28.23
2018-02-14T01:29:04.191Z,29.90
2018-02-14T01:31:32.436Z,27.37
2018-02-14T01:34:00.694Z,28.23
2018-02-14T01:36:28.947Z,28.50
2018-02-14T01:38:57.205Z,29.07
2018-02-14T01:41:25.481Z,27.83
2018-02-14T01:43:54.462Z,27.07
2018-02-14T01:46:22.709Z,26.80
2018-02-14T01:48:50.970Z,27.03
2018-02-14T01:51:19.355Z,26.73
2018-02-14T01:53:47.816Z,26.03
2018-02-14T01:56:16.093Z,25.57
2018-02-14T01:58:44.373Z,25.43
2018-02-14T02:01:13.422Z,25.70
2018-02-14T02:03:41.672Z,27.77
2018-02-14T02:06:09.917Z,25.47
2018-02-14T02:08:38.193Z,26.60
2018-02-14T02:11:07.236Z,27.00
2018-02-14T02:13:35.492Z,28.57
2018-02-14T02:16:03.903Z,28.30
2018-02-14T02:18:32.153Z,27.73
2018-02-14T02:21:00.393Z,27.53
2018-02-14T02:23:28.646Z,27.77
2018-02-14T02:25:57.501Z,24.73
2018-02-14T02:28:25.753Z,28.73
2018-02-14T02:30:54.013Z,26.77
2018-02-14T02:33:22.273Z,24.23
2018-02-14T02:35:51.323Z,26.10
2018-02-14T02:38:20.314Z,26.27
2018-02-14T02:40:49.334Z,22.90
2018-02-14T02:43:17.605Z,24.03
2018-02-14T02:45:45.855Z,25.53
2018-02-14T02:48:14.292Z,24.13
2018-02-14T02:50:42.558Z,25.77
2018-02-14T02:53:10.814Z,24.17
2018-02-14T02:55:39.093Z,24.73
2018-02-14T02:58:07.357Z,24.63
2018-02-14T03:00:35.608Z,23.77
2018-02-14T03:03:03.872Z,27.20
2018-02-14T03:05:32.136Z,23.83
2018-02-14T03:08:00.402Z,25.20
2018-02-14T03:10:28.680Z,25.40
2018-02-14T03:12:57.078Z,23.77
2018-02-14T03:15:25.333Z,26.17
2018-02-14T03:17:53.598Z,23.03
2018-02-14T03:20:21.877Z,26.83
2018-02-14T03:22:50.153Z,25.17
2018-02-14T03:25:18.412Z,25.13
2018-02-14T03:27:46.691Z,24.60
2018-02-14T03:30:14.947Z,25.60
2018-02-14T03:32:43.193Z,25.57
2018-02-14T03:35:11.441Z,25.43
2018-02-14T03:37:39.516Z,24.90
2018-02-14T03:40:10.296Z,25.43
2018-02-14T03:42:38.547Z,25.77
2018-02-14T03:45:07.817Z,24.60
2018-02-14T03:47:36.193Z,24.60
2018-02-14T03:50:04.439Z,25.10
2018-02-14T03:52:34.789Z,25.70
2018-02-14T03:55:04.214Z,26.33
2018-02-14T03:57:32.302Z,27.67
2018-02-14T04:00:00.373Z,31.20
2018-02-14T04:02:28.979Z,29.37
2018-02-14T04:04:57.232Z,28.47
2018-02-14T04:07:25.510Z,28.10
2018-02-14T04:09:53.773Z,29.60
2018-02-14T04:12:22.045Z,28.50
2018-02-14T04:14:50.301Z,30.03
2018-02-14T04:17:19.428Z,29.87
2018-02-14T04:19:47.699Z,28.60
2018-02-14T04:22:15.953Z,32.33
2018-02-14T04:24:44.013Z,28.80
2018-02-14T04:27:12.888Z,32.40
2018-02-14T04:29:41.149Z,31.30
2018-02-14T04:32:09.395Z,32.10
2018-02-14T04:34:38.254Z,30.40
2018-02-14T04:37:06.522Z,31.10
2018-02-14T04:39:34.770Z,32.53
2018-02-14T04:42:03.019Z,28.97
2018-02-14T04:44:32.037Z,29.73
2018-02-14T04:47:00.648Z,32.40
2018-02-14T04:49:28.895Z,30.37
2018-02-14T04:51:57.461Z,29.13
2018-02-14T04:54:25.386Z,29.87
2018-02-14T04:56:53.648Z,30.30
2018-02-14T04:59:21.905Z,30.67
2018-02-14T05:01:50.236Z,31.27
2018-02-14T05:04:18.498Z,31.23
2018-02-14T05:06:46.766Z,32.33
2018-02-14T05:09:15.024Z,32.57
2018-02-14T05:11:43.300Z,29.23
2018-02-14T05:14:11.582Z,30.80
2018-02-14T05:16:39.835Z,31.33
2018-02-14T05:19:08.092Z,27.77
2018-02-14T05:21:37.108Z,29.90
2018-02-14T05:24:05.368Z,29.40
2018-02-14T05:26:33.628Z,31.10
2018-02-14T05:29:03.857Z,30.50
2018-02-14T05:31:32.124Z,29.67
2018-02-14T05:34:01.121Z,31.10
2018-02-14T05:36:30.031Z,28.70
2018-02-14T05:38:58.281Z,29.40
2018-02-14T05:41:26.534Z,30.03
2018-02-14T05:43:54.808Z,29.67
2018-02-14T05:46:23.066Z,30.17
2018-02-14T05:48:51.350Z,26.70
2018-02-14T05:51:19.622Z,29.10
2018-02-14T05:53:48.568Z,27.37
2018-02-14T05:56:16.822Z,27.50
2018-02-14T05:58:45.074Z,29.70
2018-02-14T06:01:13.326Z,28.90
2018-02-14T06:03:41.315Z,28.57
2018-02-14T06:06:09.573Z,31.80
2018-02-14T06:08:37.858Z,30.97
2018-02-14T06:11:06.111Z,28.83
2018-02-14T06:13:34.387Z,28.20
2018-02-14T06:16:02.650Z,29.40
2018-02-14T06:18:30.917Z,29.73
2018-02-14T06:20:59.478Z,28.05
2018-02-14T06:23:27.749Z,29.23
2018-02-14T06:25:56.220Z,29.30
2018-02-14T06:28:24.496Z,30.73
2018-02-14T06:30:52.959Z,29.70
2018-02-14T06:33:21.211Z,28.53
2018-02-14T06:35:49.476Z,26.70
2018-02-14T06:38:17.628Z,29.67
2018-02-14T06:40:45.916Z,29.00
2018-02-14T06:43:14.182Z,28.63
2018-02-14T06:45:42.427Z,30.40
2018-02-14T06:48:11.476Z,30.33
2018-02-14T06:50:39.729Z,25.23
2018-02-14T06:53:07.993Z,28.70
2018-02-14T06:55:36.554Z,30.12
2018-02-14T06:58:04.810Z,29.73
2018-02-14T07:00:33.213Z,27.97
2018-02-14T07:03:01.478Z,28.30
2018-02-14T07:05:29.725Z,28.03
2018-02-14T07:07:57.981Z,29.23
2018-02-14T07:10:26.248Z,29.80
2018-02-14T07:12:54.531Z,27.67
2018-02-14T07:15:22.946Z,29.10
2018-02-14T07:17:51.209Z,32.30
2018-02-14T07:20:19.554Z,27.80
2018-02-14T07:22:47.850Z,28.93
2018-02-14T07:25:16.386Z,27.67
2018-02-14T07:27:44.657Z,29.87
2018-02-14T07:30:13.819Z,30.10
2018-02-14T07:32:41.748Z,29.90
2018-02-14T07:35:10.797Z,28.80
2018-02-14T07:37:39.041Z,30.83
2018-02-14T07:40:09.412Z,29.03
2018-02-14T07:42:37.671Z,27.73
2018-02-14T07:45:08.545Z,29.60
2018-02-14T07:47:36.790Z,29.43
2018-02-14T07:50:07.577Z,28.83
2018-02-14T07:52:35.842Z,26.73
2018-02-14T07:55:06.826Z,26.27
2018-02-14T07:57:35.100Z,28.43
2018-02-14T08:00:03.353Z,28.87
2018-02-14T08:02:32.243Z,26.60
2018-02-14T08:05:00.881Z,27.27
2018-02-14T08:07:29.754Z,25.00
2018-02-14T08:09:58.004Z,26.87
2018-02-14T08:12:26.908Z,28.77
2018-02-14T08:14:55.172Z,27.10
2018-02-14T08:17:23.422Z,23.47
2018-02-14T08:19:51.688Z,28.67
2018-02-14T08:22:19.941Z,27.60
2018-02-14T08:24:48.212Z,26.60
2018-02-14T08:27:16.459Z,25.27
2018-02-14T08:29:44.723Z,26.03
2018-02-14T08:32:12.785Z,26.60
2018-02-14T08:34:41.049Z,27.77
2018-02-14T08:37:09.309Z,27.23
2018-02-14T08:39:37.569Z,25.10
2018-02-14T08:42:05.832Z,24.90
2018-02-14T08:44:34.114Z,24.03
2018-02-14T08:47:02.370Z,23.63
2018-02-14T08:49:30.638Z,24.50
2018-02-14T08:51:59.103Z,23.87
2018-02-14T08:54:27.369Z,23.03
2018-02-14T08:56:56.782Z,21.50
2018-02-14T08:59:25.067Z,20.00
2018-02-14T09:01:53.326Z,20.10
2018-02-14T09:04:21.578Z,19.97
2018-02-14T09:06:49.825Z,20.93
2018-02-14T09:09:18.333Z,17.97
2018-02-14T09:11:46.581Z,22.20
2018-02-14T09:14:15.641Z,19.40
2018-02-14T09:16:44.081Z,20.80
2018-02-14T09:19:12.372Z,21.53
2018-02-14T09:21:40.633Z,23.73
2018-02-14T09:24:08.880Z,21.93
2018-02-14T09:26:37.129Z,20.97
2018-02-14T09:29:05.425Z,22.83
2018-02-14T09:31:33.684Z,22.90
2018-02-14T09:34:01.957Z,28.10
2018-02-14T09:36:30.941Z,22.77
2018-02-14T09:38:59.185Z,20.60
2018-02-14T09:41:27.461Z,19.70
2018-02-14T09:43:55.725Z,20.10
2018-02-14T09:46:23.973Z,20.70
2018-02-14T09:48:52.038Z,20.60
2018-02-14T09:51:21.038Z,20.00
2018-02-14T09:53:49.291Z,21.23
2018-02-14T09:56:17.884Z,19.37
2018-02-14T09:58:46.137Z,20.70
2018-02-14T10:01:14.410Z,20.00
2018-02-14T10:03:42.702Z,18.67
2018-02-14T10:06:11.198Z,20.67
2018-02-14T10:08:39.460Z,19.90
2018-02-14T10:11:07.734Z,18.90
2018-02-14T10:13:35.989Z,20.90
2018-02-14T10:16:03.884Z,18.93
2018-02-14T10:18:32.909Z,18.37
2018-02-14T10:21:01.198Z,16.17
2018-02-14T10:23:30.454Z,17.57
2018-02-14T10:25:58.717Z,26.73
2018-02-14T10:28:26.980Z,20.50
2018-02-14T10:30:55.238Z,19.53
2018-02-14T10:33:23.981Z,17.80
2018-02-14T10:35:52.252Z,17.83
2018-02-14T10:38:20.506Z,17.20
2018-02-14T10:40:48.789Z,18.60
2018-02-14T10:43:17.046Z,19.70
2018-02-14T10:45:45.309Z,19.23
2018-02-14T10:48:13.558Z,17.37
2018-02-14T10:50:41.813Z,16.93
2018-02-14T10:53:10.065Z,16.93
2018-02-14T10:55:39.250Z,18.10
2018-02-14T10:58:07.500Z,17.07
2018-02-14T11:00:41.090Z,16.97
2018-02-14T11:03:15.694Z,15.80
2018-02-14T11:08:50.425Z,16.30
2018-02-14T11:11:18.677Z,17.37
2018-02-14T11:13:46.934Z,16.90
2018-02-14T11:16:15.710Z,16.10
2018-02-14T11:18:43.965Z,17.27
2018-02-14T11:21:12.214Z,17.20
2018-02-14T11:23:40.466Z,19.83
2018-02-14T11:26:09.094Z,15.20
2018-02-14T11:28:37.356Z,15.93
2018-02-14T11:31:06.385Z,15.43
2018-02-14T11:33:34.641Z,14.53
2018-02-14T11:36:03.206Z,16.03
2018-02-14T11:38:31.495Z,14.73
2018-02-14T11:40:59.962Z,15.10
2018-02-14T11:43:28.209Z,15.00
2018-02-14T11:45:56.469Z,12.60
2018-02-14T11:48:24.726Z,15.37
2018-02-14T11:50:52.979Z,15.10
2018-02-14T11:53:21.237Z,14.50
2018-02-14T11:55:49.494Z,15.23
2018-02-14T11:58:17.760Z,13.17
2018-02-14T12:00:46.044Z,14.20
2018-02-14T12:03:14.293Z,13.57
2018-02-14T12:05:42.550Z,12.70
2018-02-14T12:08:10.809Z,12.20
2018-02-14T12:10:39.061Z,13.70
2018-02-14T12:13:07.140Z,14.63
2018-02-14T12:15:35.398Z,12.67
2018-02-14T12:18:03.654Z,12.73
2018-02-14T12:20:32.988Z,13.07
2018-02-14T12:23:01.253Z,14.80
2018-02-14T12:25:29.506Z,12.57
2018-02-14T12:27:57.893Z,13.30
2018-02-14T12:30:26.212Z,12.27
2018-02-14T12:32:54.653Z,11.80
2018-02-14T12:35:22.905Z,12.30
2018-02-14T12:37:51.504Z,11.40
2018-02-14T12:40:19.761Z,10.40
2018-02-14T12:42:48.120Z,10.93
2018-02-14T12:45:16.378Z,10.40
2018-02-14T12:47:44.676Z,10.87
2018-02-14T12:50:14.684Z,13.40
2018-02-14T12:52:43.002Z,11.47
2018-02-14T12:55:11.287Z,13.00
2018-02-14T12:57:39.681Z,13.30
2018-02-14T13:00:09.533Z,11.90
2018-02-14T13:02:37.817Z,13.53
2018-02-14T13:05:08.406Z,10.30
2018-02-14T13:07:36.661Z,12.57
2018-02-14T13:10:06.970Z,11.90
2018-02-14T13:12:35.249Z,11.90
2018-02-14T13:15:03.689Z,10.17
2018-02-14T13:17:32.230Z,11.13
2018-02-14T13:20:00.519Z,12.17
2018-02-14T13:22:28.764Z,12.60
2018-02-14T13:24:57.013Z,11.33
2018-02-14T13:27:27.218Z,12.27
2018-02-14T13:29:55.481Z,12.40
2018-02-14T13:32:23.738Z,12.00
2018-02-14T13:34:51.994Z,13.97
2018-02-14T13:37:20.249Z,13.07
2018-02-14T13:39:48.517Z,14.03
2018-02-14T13:42:16.994Z,12.80
2018-02-14T13:44:45.246Z,13.40
2018-02-14T13:47:13.517Z,13.77
2018-02-14T13:49:41.769Z,12.73
2018-02-14T13:52:10.027Z,13.60
2018-02-14T13:54:38.792Z,11.90
2018-02-14T13:57:07.129Z,11.93
2018-02-14T13:59:36.002Z,13.43
2018-02-14T14:02:04.263Z,12.83
2018-02-14T14:04:32.563Z,12.63
2018-02-14T14:07:00.813Z,11.03
2018-02-14T14:09:29.065Z,11.90
2018-02-14T14:11:57.324Z,12.50
2018-02-14T14:14:26.978Z,11.00
2018-02-14T14:16:55.846Z,11.10
2018-02-14T14:19:24.105Z,10.40
2018-02-14T14:21:52.365Z,11.93
2018-02-14T14:24:20.622Z,11.13
2018-02-14T14:26:48.881Z,11.17
2018-02-14T14:29:18.702Z,11.93
2018-02-14T14:31:47.023Z,12.33
2018-02-14T14:34:15.294Z,13.43
2018-02-14T14:36:43.537Z,11.83
2018-02-14T14:39:11.801Z,10.50
2018-02-14T14:41:40.303Z,13.40
2018-02-14T14:44:08.818Z,13.33
2018-02-14T14:46:37.095Z,12.00
2018-02-14T14:49:05.353Z,11.93
2018-02-14T14:51:33.607Z,12.10
2018-02-14T14:54:02.454Z,11.87
2018-02-14T14:56:30.725Z,10.90
2018-02-14T14:58:58.986Z,11.00
2018-02-14T15:01:27.245Z,11.10
2018-02-14T15:03:57.158Z,9.83
2018-02-14T15:06:25.424Z,12.53
2018-02-14T15:08:53.676Z,12.47
2018-02-14T15:11:23.115Z,9.40
2018-02-14T15:13:51.378Z,9.97
2018-02-14T15:16:19.621Z,10.67
2018-02-14T15:18:47.878Z,10.20
2018-02-14T15:21:16.850Z,10.93
2018-02-14T15:23:45.108Z,12.40
2018-02-14T15:26:13.381Z,10.90
2018-02-14T15:28:41.640Z,10.93
2018-02-14T15:31:09.906Z,12.87
2018-02-14T15:33:38.149Z,11.00
2018-02-14T15:36:06.637Z,9.30
2018-02-14T15:38:34.882Z,10.53
2018-02-14T15:41:03.140Z,10.13
2018-02-14T15:43:31.404Z,9.13
2018-02-14T15:45:59.652Z,10.00
2018-02-14T15:48:27.884Z,9.17
2018-02-14T15:50:56.270Z,8.67
2018-02-14T15:53:24.243Z,10.47
2018-02-14T15:55:53.324Z,9.40
2018-02-14T15:58:22.723Z,9.30
2018-02-14T16:00:52.625Z,8.83
2018-02-14T16:03:21.641Z,10.07
2018-02-14T16:05:49.905Z,10.30
2018-02-14T16:08:18.178Z,10.43
2018-02-14T16:10:46.432Z,10.47
2018-02-14T16:13:14.674Z,11.53
2018-02-14T16:15:42.929Z,9.53
2018-02-14T16:18:11.181Z,10.40
2018-02-14T16:20:39.433Z,10.00
2018-02-14T16:23:07.723Z,9.90
2018-02-14T16:25:35.965Z,9.70
2018-02-14T16:28:04.021Z,11.33
2018-02-14T16:30:32.526Z,10.10
2018-02-14T16:33:00.775Z,11.30
2018-02-14T16:35:29.021Z,12.53
2018-02-14T16:37:57.286Z,11.43
2018-02-14T16:40:25.535Z,10.80
2018-02-14T16:42:54.008Z,11.23
2018-02-14T16:45:22.253Z,13.37
2018-02-14T16:47:50.552Z,13.90
2018-02-14T16:50:18.815Z,13.27
2018-02-14T16:52:47.095Z,13.13
2018-02-14T16:55:15.345Z,13.77
2018-02-14T16:57:43.600Z,13.80
2018-02-14T17:00:13.605Z,13.80
2018-02-14T17:02:41.859Z,13.70
2018-02-14T17:05:10.761Z,15.53
2018-02-14T17:07:39.017Z,16.50
2018-02-14T17:10:09.393Z,17.67
2018-02-14T17:12:37.670Z,17.27
2018-02-14T17:15:06.349Z,17.00
2018-02-14T17:17:34.664Z,16.93
2018-02-14T17:20:02.932Z,15.90
2018-02-14T17:22:31.186Z,18.63
2018-02-14T17:24:59.448Z,18.07
2018-02-14T17:27:27.707Z,18.47
2018-02-14T17:29:55.956Z,17.43
2018-02-14T17:32:24.217Z,17.43
2018-02-14T17:34:52.485Z,16.93
2018-02-14T17:37:20.753Z,17.73
2018-02-14T17:39:49.004Z,19.50
2018-02-14T17:42:17.254Z,19.67
2018-02-14T17:44:45.511Z,18.33
2018-02-14T17:47:13.761Z,16.70
2018-02-14T17:49:42.067Z,18.67
2018-02-14T17:52:10.334Z,17.87
2018-02-14T17:54:38.630Z,17.10
2018-02-14T17:57:06.889Z,16.53
2018-02-14T17:59:35.149Z,17.33
2018-02-14T18:02:03.431Z,17.33
2018-02-14T18:04:31.742Z,17.80
2018-02-14T18:07:00.030Z,17.20
2018-02-14T18:09:28.293Z,17.07
2018-02-14T18:11:56.560Z,15.73
2018-02-14T18:14:24.817Z,17.53
2018-02-14T18:16:53.077Z,18.30
2018-02-14T18:19:21.380Z,17.57
2018-02-14T18:21:49.645Z,17.53
2018-02-14T18:24:17.930Z,17.60
2018-02-14T18:26:46.229Z,16.23
2018-02-14T18:29:14.486Z,17.23
2018-02-14T18:31:42.594Z,17.40
2018-02-14T18:34:10.874Z,16.20
2018-02-14T18:36:39.246Z,15.47
2018-02-14T18:39:07.504Z,20.37
2018-02-14T18:41:35.765Z,17.60
2018-02-14T18:44:04.022Z,17.47
2018-02-14T18:46:32.278Z,14.23
2018-02-14T18:49:00.534Z,16.50
2018-02-14T18:51:28.787Z,17.17
2018-02-14T18:53:58.328Z,19.33
2018-02-14T18:56:26.618Z,17.20
2018-02-14T18:58:54.894Z,15.40
2018-02-14T19:01:23.388Z,14.80
2018-02-14T19:03:51.649Z,17.33
2018-02-14T19:06:19.917Z,17.93
2018-02-14T19:08:48.194Z,18.57
2018-02-14T19:11:16.458Z,15.87
2018-02-14T19:13:44.754Z,17.63
2018-02-14T19:16:13.011Z,16.07
2018-02-14T19:18:41.281Z,17.57
2018-02-14T19:21:09.535Z,16.10
2018-02-14T19:23:37.787Z,19.60
2018-02-14T19:26:06.045Z,16.80
2018-02-14T19:28:34.309Z,17.60
2018-02-14T19:31:02.582Z,16.00
2018-02-14T19:33:30.878Z,17.00
2018-02-14T19:35:59.132Z,17.30
2018-02-14T19:38:27.381Z,17.90
2018-02-14T19:40:55.657Z,18.00
2018-02-14T19:43:23.932Z,18.03
2018-02-14T19:45:52.254Z,17.10
2018-02-14T19:48:20.516Z,18.03
2018-02-14T19:50:48.781Z,17.87
2018-02-14T19:53:17.065Z,17.70
2018-02-14T19:55:45.341Z,18.97
2018-02-14T19:58:13.598Z,17.10
2018-02-14T20:00:41.862Z,17.87
2018-02-14T20:03:10.149Z,17.73
2018-02-14T20:05:38.413Z,19.27
2018-02-14T20:08:06.694Z,16.40
2018-02-14T20:10:34.953Z,17.90
2018-02-14T20:13:03.206Z,19.27
2018-02-14T20:15:31.470Z,19.17
2018-02-14T20:17:59.794Z,17.77
2018-02-14T20:20:28.078Z,17.70
2018-02-14T20:22:56.361Z,19.03
2018-02-14T20:25:24.626Z,20.17
2018-02-14T20:27:53.102Z,17.20
2018-02-14T20:30:21.427Z,16.40
2018-02-14T20:32:49.686Z,17.03
2018-02-14T20:35:18.054Z,18.40
2018-02-14T20:37:46.319Z,17.60
2018-02-14T20:40:14.599Z,17.90
2018-02-14T20:42:42.870Z,18.47
2018-02-14T20:45:12.182Z,17.70
2018-02-14T20:47:40.723Z,19.00
2018-02-14T20:50:09.758Z,19.03
2018-02-14T20:52:40.641Z,17.70
2018-02-14T20:55:10.742Z,18.30
2018-02-14T20:57:39.001Z,18.77
2018-02-14T21:00:09.294Z,18.60
2018-02-14T21:02:37.552Z,18.80
2018-02-14T21:05:08.946Z,20.20
2018-02-14T21:07:37.221Z,18.93
2018-02-14T21:10:07.378Z,17.00
2018-02-14T21:12:35.631Z,18.60
2018-02-14T21:15:04.059Z,18.87
2018-02-14T21:17:32.391Z,19.23
2018-02-14T21:20:00.658Z,18.97
2018-02-14T21:22:29.123Z,20.20
2018-02-14T21:24:57.385Z,20.23
2018-02-14T21:27:25.671Z,18.60
2018-02-14T21:29:53.933Z,18.00
2018-02-14T21:32:22.245Z,18.43
2018-02-14T21:34:50.509Z,20.17
2018-02-14T21:37:18.785Z,18.37
2018-02-14T21:39:47.059Z,20.60
2018-02-14T21:42:15.337Z,19.53
2018-02-14T21:44:43.642Z,18.47
2018-02-14T21:47:11.894Z,18.17
2018-02-14T21:49:40.188Z,21.43
2018-02-14T21:52:08.466Z,18.67
2018-02-14T21:54:36.799Z,19.67
2018-02-14T21:57:05.055Z,17.17
2018-02-14T21:59:33.346Z,20.20
2018-02-14T22:02:01.663Z,20.00
2018-02-14T22:04:29.917Z,19.13
2018-02-14T22:06:58.178Z,17.47
2018-02-14T22:09:26.444Z,18.23
2018-02-14T22:11:54.715Z,19.47
2018-02-14T22:14:22.973Z,19.33
2018-02-14T22:16:51.346Z,19.67
2018-02-14T22:19:19.614Z,19.27
2018-02-14T22:21:47.865Z,19.50
2018-02-14T22:24:16.136Z,18.93
2018-02-14T22:26:44.405Z,18.33
2018-02-14T22:29:12.679Z,19.37
2018-02-14T22:31:40.981Z,19.80
2018-02-14T22:34:09.253Z,19.90
2018-02-14T22:36:37.518Z,19.80
2018-02-14T22:39:05.473Z,20.43
2018-02-14T22:41:33.909Z,20.83
2018-02-14T22:44:02.189Z,19.17
2018-02-14T22:46:30.520Z,18.70
2018-02-14T22:48:58.825Z,17.20
2018-02-14T22:51:27.082Z,19.20
2018-02-14T22:53:55.532Z,18.73
2018-02-14T22:56:23.952Z,18.43
2018-02-14T22:58:52.206Z,20.00
2018-02-14T23:01:20.871Z,20.30
2018-02-14T23:03:49.126Z,20.50
2018-02-14T23:06:17.389Z,20.73
2018-02-14T23:08:45.633Z,19.20
2018-02-14T23:11:13.891Z,17.83
2018-02-14T23:13:42.144Z,18.30
2018-02-14T23:16:10.414Z,18.80
2018-02-14T23:18:38.689Z,21.03
2018-02-14T23:21:06.969Z,19.03
2018-02-14T23:23:35.421Z,20.73
2018-02-14T23:26:03.355Z,18.33
2018-02-14T23:28:31.637Z,19.87
2018-02-14T23:31:00.090Z,18.30
2018-02-14T23:33:28.353Z,20.53
2018-02-14T23:35:56.729Z,20.30
2018-02-14T23:38:25.000Z,18.23
2018-02-14T23:40:53.346Z,19.77
2018-02-14T23:43:21.593Z,19.60
2018-02-14T23:45:49.851Z,20.70
2018-02-14T23:48:18.116Z,18.73
2018-02-14T23:50:47.585Z,20.10
2018-02-14T23:53:16.053Z,20.60
2018-02-14T23:55:44.763Z,17.90
2018-02-14T23:58:13.812Z,20.57
